createdAt,value
2018-03-02T00:00:07.913Z,15.43
2018-03-02T00:02:35.506Z,16.57
2018-03-02T00:05:03.134Z,15.63
2018-03-02T00:07:30.776Z,15.50
2018-03-02T00:09:58.443Z,15.50
2018-03-02T00:12:26.854Z,14.40
2018-03-02T00:14:54.483Z,15.57
2018-03-02T00:17:22.845Z,15.97
2018-03-02T00:19:50.524Z,15.80
2018-03-02T00:22:18.223Z,16.67
2018-03-02T00:24:45.876Z,16.30
2018-03-02T00:27:14.246Z,15.83
2018-03-02T00:29:42.655Z,15.60
2018-03-02T00:32:10.331Z,14.40
2018-03-02T00:34:37.944Z,16.67
2018-03-02T00:37:06.346Z,16.50
2018-03-02T00:39:33.958Z,16.80
2018-03-02T00:42:03.061Z,17.07
2018-03-02T00:44:31.357Z,16.83
2018-03-02T00:46:59.717Z,16.73
2018-03-02T00:49:28.108Z,16.33
2018-03-02T00:51:57.399Z,17.87
2018-03-02T00:54:24.992Z,16.60
2018-03-02T00:56:53.432Z,17.30
2018-03-02T00:59:21.122Z,17.30
2018-03-02T01:01:49.484Z,17.67
2018-03-02T01:04:17.929Z,15.77
2018-03-02T01:06:45.866Z,17.93
2018-03-02T01:09:13.509Z,16.83
2018-03-02T01:11:41.238Z,18.23
2018-03-02T01:14:08.797Z,17.97
2018-03-02T01:16:36.454Z,18.00
2018-03-02T01:19:04.053Z,17.47
2018-03-02T01:21:31.694Z,16.00
2018-03-02T01:24:00.100Z,17.37
2018-03-02T01:26:27.735Z,17.03
2018-03-02T01:28:56.158Z,18.67
2018-03-02T01:31:25.994Z,17.53
2018-03-02T01:33:53.797Z,19.07
2018-03-02T01:36:22.479Z,16.63
2018-03-02T01:38:51.474Z,18.93
2018-03-02T01:41:19.882Z,17.50
2018-03-02T01:43:47.486Z,18.00
2018-03-02T01:46:15.418Z,18.63
2018-03-02T01:48:43.892Z,17.00
2018-03-02T01:51:23.492Z,19.23
2018-03-02T01:53:51.864Z,19.43
2018-03-02T01:56:20.234Z,18.53
2018-03-02T01:58:48.698Z,19.70
2018-03-02T02:01:16.314Z,17.73
2018-03-02T02:03:44.570Z,18.03
2018-03-02T02:06:12.939Z,18.03
2018-03-02T02:08:41.340Z,18.80
2018-03-02T02:11:08.986Z,17.43
2018-03-02T02:13:37.358Z,18.10
2018-03-02T02:16:05.733Z,19.03
2018-03-02T02:18:34.167Z,18.13
2018-03-02T02:21:01.807Z,18.03
2018-03-02T02:23:29.385Z,17.93
2018-03-02T02:25:57.006Z,17.57
2018-03-02T02:28:25.402Z,18.53
2018-03-02T02:30:53.004Z,17.63
2018-03-02T02:33:21.414Z,17.73
2018-03-02T02:35:49.790Z,17.90
2018-03-02T02:38:18.175Z,17.83
2018-03-02T02:40:45.827Z,18.10
2018-03-02T02:43:14.187Z,18.93
2018-03-02T02:45:42.580Z,17.50
2018-03-02T02:48:10.997Z,18.53
2018-03-02T02:50:38.589Z,17.93
2018-03-02T02:53:06.229Z,17.53
2018-03-02T02:55:33.886Z,17.33
2018-03-02T02:58:01.477Z,16.97
2018-03-02T03:00:30.623Z,20.13
2018-03-02T03:02:58.230Z,18.73
2018-03-02T03:05:25.866Z,18.30
2018-03-02T03:07:53.508Z,18.20
2018-03-02T03:10:21.126Z,16.83
2018-03-02T03:12:49.542Z,18.40
2018-03-02T03:15:17.164Z,17.33
2018-03-02T03:17:44.769Z,18.83
2018-03-02T03:20:12.408Z,19.27
2018-03-02T03:22:40.767Z,17.57
2018-03-02T03:25:09.130Z,18.27
2018-03-02T03:27:37.518Z,17.10
2018-03-02T03:30:06.658Z,17.77
2018-03-02T03:32:34.274Z,18.27
2018-03-02T03:35:01.900Z,16.77
2018-03-02T03:37:29.500Z,18.83
2018-03-02T03:39:57.891Z,18.53
2018-03-02T03:42:25.562Z,16.60
2018-03-02T03:44:53.194Z,18.13
2018-03-02T03:47:20.814Z,18.93
2018-03-02T03:49:48.417Z,16.53
2018-03-02T03:52:16.815Z,18.17
2018-03-02T03:54:44.413Z,17.60
2018-03-02T03:57:12.050Z,17.17
2018-03-02T03:59:39.647Z,17.97
2018-03-02T04:02:07.345Z,18.40
2018-03-02T04:04:35.703Z,17.97
2018-03-02T04:07:03.318Z,18.67
2018-03-02T04:09:30.973Z,17.67
2018-03-02T04:11:58.566Z,18.13
2018-03-02T04:14:26.162Z,18.07
2018-03-02T04:16:54.550Z,18.57
2018-03-02T04:19:22.926Z,17.90
2018-03-02T04:21:51.293Z,17.67
2018-03-02T04:24:19.685Z,15.93
2018-03-02T04:26:47.326Z,16.97
2018-03-02T04:29:15.725Z,17.87
2018-03-02T04:31:43.325Z,17.43
2018-03-02T04:34:10.954Z,18.50
2018-03-02T04:36:38.603Z,18.03
2018-03-02T04:39:06.967Z,16.70
2018-03-02T04:41:35.333Z,18.33
2018-03-02T04:44:02.970Z,18.70
2018-03-02T04:46:30.595Z,17.07
2018-03-02T04:48:58.253Z,17.67
2018-03-02T04:51:25.854Z,18.40
2018-03-02T04:53:53.455Z,18.87
2018-03-02T04:56:21.849Z,19.90
2018-03-02T04:58:55.659Z,18.47
2018-03-02T05:01:23.294Z,17.67
2018-03-02T05:03:52.331Z,17.97
2018-03-02T05:06:20.561Z,19.50
2018-03-02T05:08:48.980Z,19.57
2018-03-02T05:11:17.302Z,18.13
2018-03-02T05:13:45.667Z,17.87
2018-03-02T05:16:13.300Z,18.60
2018-03-02T05:18:40.950Z,18.53
2018-03-02T05:21:08.598Z,17.87
2018-03-02T05:23:36.250Z,19.50
2018-03-02T05:26:03.850Z,19.33
2018-03-02T05:28:31.476Z,19.20
2018-03-02T05:30:59.121Z,19.87
2018-03-02T05:33:27.488Z,19.40
2018-03-02T05:35:55.919Z,18.97
2018-03-02T05:38:23.550Z,19.27
2018-03-02T05:40:51.218Z,18.10
2018-03-02T05:43:18.829Z,18.60
2018-03-02T05:45:46.690Z,19.50
2018-03-02T05:48:14.324Z,18.93
2018-03-02T05:50:41.961Z,19.40
2018-03-02T05:53:09.605Z,19.53
2018-03-02T05:55:37.973Z,20.20
2018-03-02T05:58:06.379Z,19.27
2018-03-02T06:00:34.021Z,20.10
2018-03-02T06:03:02.393Z,19.43
2018-03-02T06:05:30.827Z,19.63
2018-03-02T06:07:58.694Z,17.73
2018-03-02T06:10:26.350Z,18.30
2018-03-02T06:12:53.992Z,18.83
2018-03-02T06:15:21.626Z,17.60
2018-03-02T06:17:50.035Z,18.43
2018-03-02T06:20:17.630Z,18.23
2018-03-02T06:22:45.325Z,16.80
2018-03-02T06:25:12.929Z,18.97
2018-03-02T06:27:40.576Z,18.37
2018-03-02T06:30:08.210Z,19.20
2018-03-02T06:32:36.577Z,18.60
2018-03-02T06:35:05.002Z,18.57
2018-03-02T06:37:32.602Z,19.47
2018-03-02T06:40:00.970Z,19.83
2018-03-02T06:42:28.608Z,20.00
2018-03-02T06:44:56.217Z,18.40
2018-03-02T06:47:23.822Z,18.17
2018-03-02T06:49:51.511Z,18.00
2018-03-02T06:52:19.909Z,18.90
2018-03-02T06:54:48.274Z,18.90
2018-03-02T06:57:15.877Z,18.57
2018-03-02T06:59:43.509Z,18.17
2018-03-02T07:02:11.875Z,19.93
2018-03-02T07:04:39.516Z,16.97
2018-03-02T07:07:07.108Z,20.80
2018-03-02T07:09:35.550Z,19.40
2018-03-02T07:12:03.186Z,20.80
2018-03-02T07:14:30.791Z,20.90
2018-03-02T07:16:58.427Z,19.27
2018-03-02T07:19:26.014Z,20.13
2018-03-02T07:21:53.644Z,20.30
2018-03-02T07:24:24.833Z,21.43
2018-03-02T07:26:53.318Z,19.80
2018-03-02T07:29:20.967Z,17.70
2018-03-02T07:31:49.365Z,18.60
2018-03-02T07:34:16.982Z,21.20
2018-03-02T07:36:44.621Z,18.23
2018-03-02T07:39:12.288Z,19.73
2018-03-02T07:41:39.893Z,19.30
2018-03-02T07:44:08.255Z,19.80
2018-03-02T07:46:35.935Z,17.67
2018-03-02T07:49:04.329Z,21.10
2018-03-02T07:51:31.944Z,19.70
2018-03-02T07:53:59.608Z,20.63
2018-03-02T07:56:27.267Z,18.37
2018-03-02T07:58:54.858Z,22.07
2018-03-02T08:01:22.558Z,20.87
2018-03-02T08:03:50.165Z,21.03
2018-03-02T08:06:18.570Z,23.50
2018-03-02T08:08:46.220Z,22.07
2018-03-02T08:11:31.440Z,21.47
2018-03-02T08:13:59.079Z,22.10
2018-03-02T08:16:26.694Z,21.77
2018-03-02T08:18:54.335Z,23.10
2018-03-02T08:21:21.942Z,21.60
2018-03-02T08:23:49.552Z,22.43
2018-03-02T08:26:17.178Z,21.90
2018-03-02T08:28:44.782Z,22.23
2018-03-02T08:31:12.385Z,24.40
2018-03-02T08:33:40.067Z,23.43
2018-03-02T08:36:07.710Z,22.97
2018-03-02T08:38:35.370Z,21.07
2018-03-02T08:41:03.594Z,21.47
2018-03-02T08:43:31.941Z,24.03
2018-03-02T08:45:59.542Z,22.80
2018-03-02T08:48:27.187Z,23.47
2018-03-02T08:50:54.843Z,24.07
2018-03-02T08:53:22.486Z,22.57
2018-03-02T08:55:50.158Z,22.17
2018-03-02T08:58:17.875Z,22.83
2018-03-02T09:00:45.466Z,22.87
2018-03-02T09:03:13.065Z,22.20
2018-03-02T09:05:41.464Z,23.13
2018-03-02T09:08:09.134Z,23.60
2018-03-02T09:10:36.749Z,22.60
2018-03-02T09:13:04.387Z,23.20
2018-03-02T09:15:31.987Z,24.17
2018-03-02T09:17:59.638Z,22.37
2018-03-02T09:20:27.251Z,23.83
2018-03-02T09:22:54.901Z,23.67
2018-03-02T09:25:22.497Z,22.87
2018-03-02T09:27:50.103Z,23.77
2018-03-02T09:30:18.506Z,22.27
2018-03-02T09:32:46.264Z,22.97
2018-03-02T09:35:15.174Z,22.90
2018-03-02T09:37:42.842Z,19.90
2018-03-02T09:40:10.484Z,24.00
2018-03-02T09:42:38.266Z,22.37
2018-03-02T09:45:05.938Z,23.17
2018-03-02T09:47:33.566Z,22.60
2018-03-02T09:50:01.613Z,21.40
2018-03-02T09:52:30.020Z,21.67
2018-03-02T09:54:57.662Z,21.90
2018-03-02T09:57:25.252Z,20.00
2018-03-02T09:59:52.903Z,20.40
2018-03-02T10:02:20.506Z,21.17
2018-03-02T10:04:48.134Z,21.30
2018-03-02T10:07:15.791Z,20.33
2018-03-02T10:09:43.456Z,21.80
2018-03-02T10:12:11.092Z,21.97
2018-03-02T10:14:38.735Z,22.37
2018-03-02T10:17:07.090Z,22.77
2018-03-02T10:19:34.724Z,23.33
2018-03-02T10:22:02.311Z,18.97
2018-03-02T10:24:29.918Z,21.37
2018-03-02T10:26:57.560Z,20.70
2018-03-02T10:29:25.937Z,22.73
2018-03-02T10:31:53.595Z,22.43
2018-03-02T10:34:21.960Z,21.57
2018-03-02T10:36:50.334Z,23.70
2018-03-02T10:39:18.775Z,24.10
2018-03-02T10:41:46.461Z,22.67
2018-03-02T10:44:14.134Z,22.50
2018-03-02T10:46:41.869Z,22.50
2018-03-02T10:49:10.600Z,22.30
2018-03-02T10:51:38.252Z,22.80
2018-03-02T10:54:06.858Z,20.57
2018-03-02T10:56:34.492Z,21.30
2018-03-02T10:59:02.902Z,19.90
2018-03-02T11:01:30.499Z,22.27
2018-03-02T11:04:01.116Z,19.13
2018-03-02T11:06:28.738Z,20.77
2018-03-02T11:08:56.356Z,22.00
2018-03-02T11:11:24.012Z,22.40
2018-03-02T11:13:57.032Z,19.97
2018-03-02T11:16:24.676Z,19.70
2018-03-02T11:18:52.287Z,19.10
2018-03-02T11:21:19.914Z,21.67
2018-03-02T11:23:48.298Z,22.07
2018-03-02T11:26:16.671Z,18.77
2018-03-02T11:28:45.063Z,21.30
2018-03-02T11:31:12.666Z,20.90
2018-03-02T11:33:40.280Z,22.07
2018-03-02T11:36:07.946Z,22.13
2018-03-02T11:38:35.548Z,19.43
2018-03-02T11:41:03.144Z,19.93
2018-03-02T11:43:31.539Z,20.83
2018-03-02T11:45:59.862Z,20.00
2018-03-02T11:48:27.462Z,19.10
2018-03-02T11:50:56.263Z,19.63
2018-03-02T11:53:23.914Z,20.13
2018-03-02T11:55:52.323Z,19.50
2018-03-02T11:58:19.918Z,20.40
2018-03-02T12:00:47.526Z,19.77
2018-03-02T12:03:15.192Z,20.50
2018-03-02T12:05:42.800Z,20.13
2018-03-02T12:08:10.411Z,19.20
2018-03-02T12:10:38.145Z,19.53
2018-03-02T12:13:05.728Z,18.63
2018-03-02T12:15:33.393Z,18.17
2018-03-02T12:18:01.029Z,17.33
2018-03-02T12:20:29.393Z,19.30
2018-03-02T12:22:57.054Z,18.90
2018-03-02T12:25:25.465Z,17.70
2018-03-02T12:27:53.134Z,19.70
2018-03-02T12:30:20.791Z,17.67
2018-03-02T12:32:48.414Z,18.87
2018-03-02T12:35:16.027Z,17.03
2018-03-02T12:37:43.686Z,20.13
2018-03-02T12:40:11.321Z,19.33
2018-03-02T12:42:39.701Z,19.23
2018-03-02T12:45:08.091Z,18.10
2018-03-02T12:47:35.753Z,18.50
2018-03-02T12:50:03.386Z,19.57
2018-03-02T12:52:31.762Z,19.30
2018-03-02T12:55:00.166Z,19.80
2018-03-02T12:57:27.801Z,18.60
2018-03-02T12:59:56.235Z,19.83
2018-03-02T13:02:23.877Z,22.80
2018-03-02T13:04:51.689Z,18.90
2018-03-02T13:07:19.331Z,18.87
2018-03-02T13:09:46.994Z,21.27
2018-03-02T13:12:14.630Z,20.43
2018-03-02T13:14:42.285Z,20.53
2018-03-02T13:17:09.951Z,19.80
2018-03-02T13:19:37.604Z,21.03
2018-03-02T13:22:05.240Z,22.60
2018-03-02T13:24:33.655Z,21.93
2018-03-02T13:27:13.054Z,22.67
2018-03-02T13:29:41.579Z,24.10
2018-03-02T13:32:09.166Z,23.70
2018-03-02T13:37:44.472Z,22.80
2018-03-02T13:40:23.984Z,23.10
2018-03-02T13:42:52.386Z,23.50
2018-03-02T13:45:20.031Z,24.10
2018-03-02T13:51:00.279Z,23.07
2018-03-02T13:53:28.658Z,23.10
2018-03-02T13:55:56.269Z,24.03
2018-03-02T13:58:23.903Z,24.40
2018-03-02T14:00:52.262Z,24.03
2018-03-02T14:03:32.035Z,24.10
2018-03-02T14:06:00.400Z,22.73
2018-03-02T14:08:28.807Z,21.67
2018-03-02T14:10:56.422Z,22.77
2018-03-02T14:13:24.163Z,23.67
2018-03-02T14:15:51.794Z,24.20
2018-03-02T14:18:19.408Z,24.17
2018-03-02T14:20:47.069Z,26.17
2018-03-02T14:23:15.477Z,26.62
2018-03-02T14:25:43.776Z,24.20
2018-03-02T14:28:11.400Z,23.60
2018-03-02T14:30:39.762Z,23.63
2018-03-02T14:33:07.343Z,22.67
2018-03-02T14:35:35.741Z,23.10
2018-03-02T14:38:03.489Z,22.60
2018-03-02T14:40:31.895Z,21.33
2018-03-02T14:42:59.486Z,25.40
2018-03-02T14:45:27.111Z,23.40
2018-03-02T14:47:54.755Z,24.07
2018-03-02T14:50:22.369Z,23.40
2018-03-02T14:52:49.958Z,24.07
2018-03-02T14:55:18.385Z,22.57
2018-03-02T14:57:45.966Z,23.33
2018-03-02T15:00:13.628Z,22.63
2018-03-02T15:02:41.230Z,22.73
2018-03-02T15:05:08.870Z,23.27
2018-03-02T15:07:37.278Z,24.13
2018-03-02T15:10:04.968Z,23.40
2018-03-02T15:12:32.560Z,23.67
2018-03-02T15:15:00.171Z,22.93
2018-03-02T15:17:27.814Z,22.43
2018-03-02T15:19:55.435Z,22.83
2018-03-02T15:22:23.026Z,22.10
2018-03-02T15:24:51.419Z,22.70
2018-03-02T15:27:19.046Z,22.80
2018-03-02T15:29:47.415Z,22.60
2018-03-02T15:32:15.138Z,24.47
2018-03-02T15:34:42.743Z,20.17
2018-03-02T15:37:11.151Z,19.50
2018-03-02T15:39:38.767Z,20.07
2018-03-02T15:42:06.571Z,19.97
2018-03-02T15:44:34.223Z,20.97
2018-03-02T15:47:03.162Z,19.43
2018-03-02T15:49:30.807Z,19.03
2018-03-02T15:51:58.454Z,19.00
2018-03-02T15:54:26.086Z,18.17
2018-03-02T15:56:54.468Z,17.67
2018-03-02T15:59:22.876Z,17.87
2018-03-02T16:01:50.508Z,17.07
2018-03-02T16:04:19.092Z,17.77
2018-03-02T16:06:47.494Z,18.20
2018-03-02T16:09:15.131Z,18.73
2018-03-02T16:11:43.514Z,17.90
2018-03-02T16:14:11.111Z,17.63
2018-03-02T16:16:38.759Z,17.93
2018-03-02T16:19:06.372Z,15.93
2018-03-02T16:21:34.014Z,18.73
2018-03-02T16:24:02.205Z,17.17
2018-03-02T16:26:29.826Z,16.90
2018-03-02T16:28:57.455Z,16.83
2018-03-02T16:31:25.135Z,16.37
2018-03-02T16:33:52.762Z,17.33
2018-03-02T16:36:21.134Z,16.23
2018-03-02T16:38:49.541Z,16.80
2018-03-02T16:41:17.993Z,15.50
2018-03-02T16:43:45.706Z,17.03
2018-03-02T16:46:15.550Z,17.23
2018-03-02T16:48:43.976Z,16.10
2018-03-02T16:51:11.616Z,16.83
2018-03-02T16:53:40.172Z,15.10
2018-03-02T16:56:07.786Z,18.83
2018-03-02T16:58:35.383Z,15.33
2018-03-02T17:01:03.260Z,17.00
2018-03-02T17:03:30.905Z,16.93
2018-03-02T17:05:58.514Z,15.37
2018-03-02T17:08:26.880Z,17.40
2018-03-02T17:10:55.295Z,16.90
2018-03-02T17:13:22.974Z,16.00
2018-03-02T17:15:50.637Z,16.97
2018-03-02T17:18:18.246Z,17.70
2018-03-02T17:20:45.968Z,15.93
2018-03-02T17:23:13.604Z,15.83
2018-03-02T17:25:41.273Z,23.00
2018-03-02T17:28:09.810Z,18.10
2018-03-02T17:30:38.182Z,16.37
2018-03-02T17:33:06.558Z,16.10
2018-03-02T17:35:34.982Z,14.90
2018-03-02T17:38:02.661Z,16.47
2018-03-02T17:40:30.282Z,15.97
2018-03-02T17:42:57.950Z,15.50
2018-03-02T17:45:25.569Z,15.53
2018-03-02T17:47:53.173Z,14.40
2018-03-02T17:50:20.892Z,14.77
2018-03-02T17:52:48.486Z,16.73
2018-03-02T17:55:16.669Z,16.57
2018-03-02T17:57:44.272Z,15.80
2018-03-02T18:00:11.945Z,15.43
2018-03-02T18:02:40.426Z,16.73
2018-03-02T18:05:08.802Z,14.47
2018-03-02T18:07:37.174Z,15.50
2018-03-02T18:10:04.844Z,15.57
2018-03-02T18:12:33.246Z,16.83
2018-03-02T18:15:00.874Z,15.63
2018-03-02T18:17:29.998Z,17.07
2018-03-02T18:19:57.593Z,17.13
2018-03-02T18:22:25.275Z,15.93
2018-03-02T18:24:53.779Z,16.07
2018-03-02T18:27:22.160Z,16.27
2018-03-02T18:29:50.566Z,15.73
2018-03-02T18:32:18.217Z,17.43
2018-03-02T18:34:45.844Z,16.90
2018-03-02T18:37:13.442Z,18.67
2018-03-02T18:39:41.086Z,16.10
2018-03-02T18:42:08.690Z,17.60
2018-03-02T18:44:37.229Z,17.07
2018-03-02T18:47:05.609Z,17.83
2018-03-02T18:49:33.977Z,18.77
2018-03-02T18:52:02.366Z,17.93
2018-03-02T18:54:30.734Z,17.37
2018-03-02T18:56:59.126Z,19.77
2018-03-02T18:59:28.096Z,16.30
2018-03-02T19:01:55.721Z,18.07
2018-03-02T19:04:23.322Z,18.10
2018-03-02T19:06:51.727Z,17.40
2018-03-02T19:09:19.354Z,18.63
2018-03-02T19:11:47.043Z,17.20
2018-03-02T19:14:14.922Z,19.00
2018-03-02T19:16:42.575Z,19.37
2018-03-02T19:19:10.195Z,18.67
2018-03-02T19:21:37.822Z,19.10
2018-03-02T19:24:05.467Z,19.93
2018-03-02T19:26:33.794Z,18.67
2018-03-02T19:29:01.567Z,20.40
2018-03-02T19:31:30.467Z,19.70
2018-03-02T19:33:58.377Z,20.30
2018-03-02T19:36:26.244Z,19.23
2018-03-02T19:38:54.268Z,21.30
2018-03-02T19:41:22.078Z,21.23
2018-03-02T19:43:50.025Z,21.10
2018-03-02T19:46:17.912Z,20.20
2018-03-02T19:48:45.983Z,20.27
2018-03-02T19:51:13.747Z,19.50
2018-03-02T19:53:41.717Z,20.63
2018-03-02T19:56:09.798Z,19.97
2018-03-02T19:58:37.700Z,20.20
2018-03-02T20:01:06.306Z,20.90
2018-03-02T20:03:33.996Z,20.27
2018-03-02T20:06:01.759Z,19.60
2018-03-02T20:08:29.372Z,21.97
2018-03-02T20:10:57.783Z,21.40
2018-03-02T20:13:25.604Z,20.07
2018-03-02T20:15:54.249Z,19.43
2018-03-02T20:18:22.037Z,19.63
2018-03-02T20:20:49.663Z,21.47
2018-03-02T20:23:17.307Z,20.03
2018-03-02T20:25:44.955Z,21.67
2018-03-02T20:28:12.631Z,22.17
2018-03-02T20:30:40.484Z,21.77
2018-03-02T20:33:08.160Z,23.77
2018-03-02T20:35:35.763Z,21.90
2018-03-02T20:38:03.412Z,21.60
2018-03-02T20:40:31.071Z,22.73
2018-03-02T20:42:58.734Z,21.57
2018-03-02T20:45:26.372Z,21.73
2018-03-02T20:47:54.035Z,20.80
2018-03-02T20:50:21.898Z,21.70
2018-03-02T20:52:49.582Z,23.87
2018-03-02T20:55:17.219Z,21.70
2018-03-02T20:57:44.859Z,21.53
2018-03-02T21:00:12.447Z,21.50
2018-03-02T21:02:40.113Z,22.27
2018-03-02T21:05:07.708Z,21.17
2018-03-02T21:07:36.086Z,20.87
2018-03-02T21:10:03.723Z,22.60
2018-03-02T21:12:31.319Z,19.13
2018-03-02T21:14:59.732Z,20.13
2018-03-02T21:17:27.366Z,21.20
2018-03-02T21:19:54.992Z,21.97
2018-03-02T21:22:22.641Z,21.10
2018-03-02T21:24:50.258Z,19.50
2018-03-02T21:27:17.987Z,21.60
2018-03-02T21:29:45.724Z,22.93
2018-03-02T21:32:13.390Z,19.87
2018-03-02T21:34:40.990Z,21.20
2018-03-02T21:37:09.460Z,19.80
2018-03-02T21:39:37.834Z,20.20
2018-03-02T21:42:06.211Z,21.13
2018-03-02T21:44:34.760Z,20.67
2018-03-02T21:47:02.452Z,21.83
2018-03-02T21:49:30.121Z,20.63
2018-03-02T21:51:57.868Z,19.40
2018-03-02T21:54:25.525Z,21.70
2018-03-02T21:56:53.667Z,20.67
2018-03-02T21:59:21.394Z,21.10
2018-03-02T22:01:49.934Z,21.70
2018-03-02T22:04:17.725Z,18.40
2018-03-02T22:06:46.119Z,21.87
2018-03-02T22:09:14.506Z,20.30
2018-03-02T22:11:42.149Z,22.47
2018-03-02T22:14:10.566Z,19.83
2018-03-02T22:16:38.196Z,22.03
2018-03-02T22:19:06.694Z,21.53
2018-03-02T22:21:35.037Z,22.07
2018-03-02T22:24:03.474Z,23.07
2018-03-02T22:26:31.282Z,22.40
2018-03-02T22:28:58.884Z,21.93
2018-03-02T22:31:26.594Z,22.73
2018-03-02T22:33:55.514Z,23.67
2018-03-02T22:36:23.866Z,21.43
2018-03-02T22:38:51.898Z,21.93
2018-03-02T22:41:19.684Z,21.87
2018-03-02T22:43:47.535Z,19.70
2018-03-02T22:46:15.202Z,21.60
2018-03-02T22:48:42.862Z,22.87
2018-03-02T22:51:10.568Z,20.80
2018-03-02T22:53:38.216Z,20.40
2018-03-02T22:56:06.685Z,22.93
2018-03-02T22:58:35.217Z,22.30
2018-03-02T23:01:02.817Z,24.13
2018-03-02T23:03:30.603Z,23.47
2018-03-02T23:05:59.911Z,20.77
2018-03-02T23:08:28.557Z,23.90
2018-03-02T23:10:56.370Z,21.10
2018-03-02T23:13:24.789Z,22.07
2018-03-02T23:15:52.940Z,23.80
2018-03-02T23:18:20.619Z,23.17
2018-03-02T23:20:48.278Z,24.13
2018-03-02T23:23:15.930Z,24.83
2018-03-02T23:25:43.586Z,23.43
2018-03-02T23:28:11.199Z,22.40
2018-03-02T23:30:38.796Z,21.43
2018-03-02T23:33:06.488Z,22.60
2018-03-02T23:35:34.152Z,22.93
2018-03-02T23:38:01.766Z,21.83
2018-03-02T23:40:30.171Z,22.10
2018-03-02T23:42:57.813Z,22.10
2018-03-02T23:45:25.478Z,22.30
2018-03-02T23:47:53.066Z,22.63
2018-03-02T23:50:20.735Z,23.83
2018-03-02T23:52:48.368Z,23.60
2018-03-02T23:55:15.967Z,23.67
2018-03-02T23:57:43.656Z,22.77
